sensor_id;sensor_type;location;lat;lon;timestamp;P1;durP1;ratioP1;P2;durP2;ratioP2
41480;SDS011;27217;51.220;5.308;2023-03-01T00:01:10;21.80;;;8.40;;
41480;SDS011;27217;51.220;5.308;2023-03-01T00:03:38;21.03;;;7.50;;
41480;SDS011;27217;51.220;5.308;2023-03-01T00:06:04;12.50;;;7.20;;
41480;SDS011;27217;51.220;5.308;2023-03-01T00:08:30;15.17;;;7.93;;
41480;SDS011;27217;51.220;5.308;2023-03-01T00:11:12;17.70;;;8.25;;
41480;SDS011;27217;51.220;5.308;2023-03-01T00:13:47;17.97;;;7.43;;
41480;SDS011;27217;51.220;5.308;2023-03-01T00:16:17;10.57;;;7.00;;
41480;SDS011;27217;51.220;5.308;2023-03-01T00:18:44;16.53;;;7.50;;
41480;SDS011;27217;51.220;5.308;2023-03-01T00:21:10;14.93;;;7.30;;
41480;SDS011;27217;51.220;5.308;2023-03-01T00:23:37;16.57;;;7.87;;
41480;SDS011;27217;51.220;5.308;2023-03-01T00:26:07;13.37;;;7.67;;
41480;SDS011;27217;51.220;5.308;2023-03-01T00:28:36;12.53;;;7.33;;
41480;SDS011;27217;51.220;5.308;2023-03-01T00:31:03;13.53;;;7.23;;
41480;SDS011;27217;51.220;5.308;2023-03-01T00:33:36;13.40;;;7.43;;
41480;SDS011;27217;51.220;5.308;2023-03-01T00:36:02;14.10;;;7.73;;
41480;SDS011;27217;51.220;5.308;2023-03-01T00:38:28;13.27;;;7.97;;
41480;SDS011;27217;51.220;5.308;2023-03-01T00:40:54;16.00;;;7.43;;
41480;SDS011;27217;51.220;5.308;2023-03-01T00:43:23;14.20;;;7.90;;
41480;SDS011;27217;51.220;5.308;2023-03-01T00:45:50;14.30;;;8.20;;
41480;SDS011;27217;51.220;5.308;2023-03-01T00:48:15;25.87;;;9.17;;
41480;SDS011;27217;51.220;5.308;2023-03-01T00:50:41;15.20;;;8.47;;
41480;SDS011;27217;51.220;5.308;2023-03-01T00:53:08;14.73;;;7.67;;
41480;SDS011;27217;51.220;5.308;2023-03-01T00:55:33;11.77;;;6.57;;
41480;SDS011;27217;51.220;5.308;2023-03-01T00:58:01;14.97;;;7.77;;
41480;SDS011;27217;51.220;5.308;2023-03-01T01:00:27;12.00;;;7.97;;
41480;SDS011;27217;51.220;5.308;2023-03-01T01:02:53;13.03;;;7.77;;
41480;SDS011;27217;51.220;5.308;2023-03-01T01:05:19;13.97;;;7.27;;
41480;SDS011;27217;51.220;5.308;2023-03-01T01:07:46;13.33;;;7.30;;
41480;SDS011;27217;51.220;5.308;2023-03-01T01:10:13;15.37;;;7.63;;
41480;SDS011;27217;51.220;5.308;2023-03-01T01:12:41;16.87;;;8.13;;
41480;SDS011;27217;51.220;5.308;2023-03-01T01:15:09;13.03;;;7.43;;
41480;SDS011;27217;51.220;5.308;2023-03-01T01:17:38;16.13;;;8.07;;
41480;SDS011;27217;51.220;5.308;2023-03-01T01:20:04;15.27;;;7.30;;
41480;SDS011;27217;51.220;5.308;2023-03-01T01:22:32;18.80;;;7.43;;
41480;SDS011;27217;51.220;5.308;2023-03-01T01:24:58;25.13;;;7.43;;
41480;SDS011;27217;51.220;5.308;2023-03-01T01:27:24;15.90;;;7.83;;
41480;SDS011;27217;51.220;5.308;2023-03-01T01:29:50;14.30;;;7.30;;
41480;SDS011;27217;51.220;5.308;2023-03-01T01:32:18;12.67;;;6.93;;
41480;SDS011;27217;51.220;5.308;2023-03-01T01:34:43;12.93;;;7.47;;
41480;SDS011;27217;51.220;5.308;2023-03-01T01:37:09;18.83;;;7.50;;
41480;SDS011;27217;51.220;5.308;2023-03-01T01:39:35;12.97;;;7.40;;
41480;SDS011;27217;51.220;5.308;2023-03-01T01:42:01;12.03;;;7.23;;
41480;SDS011;27217;51.220;5.308;2023-03-01T01:44:28;12.93;;;7.23;;
41480;SDS011;27217;51.220;5.308;2023-03-01T01:49:24;11.77;;;6.57;;
41480;SDS011;27217;51.220;5.308;2023-03-01T01:51:55;15.13;;;7.72;;
41480;SDS011;27217;51.220;5.308;2023-03-01T01:54:32;10.57;;;7.63;;
41480;SDS011;27217;51.220;5.308;2023-03-01T01:57:07;12.37;;;7.60;;
41480;SDS011;27217;51.220;5.308;2023-03-01T01:59:36;15.30;;;8.27;;
41480;SDS011;27217;51.220;5.308;2023-03-01T02:02:03;14.33;;;7.67;;
41480;SDS011;27217;51.220;5.308;2023-03-01T02:04:30;14.67;;;8.07;;
41480;SDS011;27217;51.220;5.308;2023-03-01T02:07:01;14.03;;;7.70;;
41480;SDS011;27217;51.220;5.308;2023-03-01T02:09:50;12.53;;;7.47;;
41480;SDS011;27217;51.220;5.308;2023-03-01T02:12:18;11.00;;;5.78;;
41480;SDS011;27217;51.220;5.308;2023-03-01T02:14:47;19.20;;;7.90;;
41480;SDS011;27217;51.220;5.308;2023-03-01T02:17:12;13.20;;;7.23;;
41480;SDS011;27217;51.220;5.308;2023-03-01T02:22:22;13.43;;;7.60;;
41480;SDS011;27217;51.220;5.308;2023-03-01T02:30:13;11.63;;;7.10;;
41480;SDS011;27217;51.220;5.308;2023-03-01T02:32:39;14.73;;;8.00;;
41480;SDS011;27217;51.220;5.308;2023-03-01T02:35:08;16.93;;;8.27;;
41480;SDS011;27217;51.220;5.308;2023-03-01T02:37:39;15.27;;;7.40;;
41480;SDS011;27217;51.220;5.308;2023-03-01T02:40:07;15.43;;;8.10;;
41480;SDS011;27217;51.220;5.308;2023-03-01T02:42:52;17.47;;;8.23;;
41480;SDS011;27217;51.220;5.308;2023-03-01T02:45:21;13.02;;;7.30;;
41480;SDS011;27217;51.220;5.308;2023-03-01T02:47:48;16.37;;;7.73;;
41480;SDS011;27217;51.220;5.308;2023-03-01T02:53:04;15.47;;;7.90;;
41480;SDS011;27217;51.220;5.308;2023-03-01T02:55:57;15.82;;;7.82;;
41480;SDS011;27217;51.220;5.308;2023-03-01T02:58:24;15.00;;;7.40;;
41480;SDS011;27217;51.220;5.308;2023-03-01T03:00:50;16.37;;;8.27;;
41480;SDS011;27217;51.220;5.308;2023-03-01T03:03:17;15.57;;;8.13;;
41480;SDS011;27217;51.220;5.308;2023-03-01T03:05:46;17.03;;;8.23;;
41480;SDS011;27217;51.220;5.308;2023-03-01T03:08:12;19.93;;;8.77;;
41480;SDS011;27217;51.220;5.308;2023-03-01T03:10:40;17.90;;;7.73;;
41480;SDS011;27217;51.220;5.308;2023-03-01T03:13:17;16.00;;;7.40;;
41480;SDS011;27217;51.220;5.308;2023-03-01T03:15:44;14.60;;;7.53;;
41480;SDS011;27217;51.220;5.308;2023-03-01T03:18:12;14.87;;;8.17;;
41480;SDS011;27217;51.220;5.308;2023-03-01T03:20:41;14.73;;;7.70;;
41480;SDS011;27217;51.220;5.308;2023-03-01T03:23:08;13.30;;;7.23;;
41480;SDS011;27217;51.220;5.308;2023-03-01T03:25:35;13.07;;;7.77;;
41480;SDS011;27217;51.220;5.308;2023-03-01T03:28:03;15.63;;;7.87;;
41480;SDS011;27217;51.220;5.308;2023-03-01T03:30:34;20.13;;;8.02;;
41480;SDS011;27217;51.220;5.308;2023-03-01T03:33:04;11.70;;;7.07;;
41480;SDS011;27217;51.220;5.308;2023-03-01T03:35:32;12.90;;;7.60;;
41480;SDS011;27217;51.220;5.308;2023-03-01T03:38:19;18.17;;;8.43;;
41480;SDS011;27217;51.220;5.308;2023-03-01T03:40:48;19.40;;;9.57;;
41480;SDS011;27217;51.220;5.308;2023-03-01T03:43:20;15.70;;;7.33;;
41480;SDS011;27217;51.220;5.308;2023-03-01T03:45:50;13.27;;;8.13;;
41480;SDS011;27217;51.220;5.308;2023-03-01T03:48:16;15.10;;;8.23;;
41480;SDS011;27217;51.220;5.308;2023-03-01T03:50:47;19.70;;;8.60;;
41480;SDS011;27217;51.220;5.308;2023-03-01T03:53:14;22.85;;;7.68;;
41480;SDS011;27217;51.220;5.308;2023-03-01T03:55:41;16.37;;;8.37;;
41480;SDS011;27217;51.220;5.308;2023-03-01T03:58:07;12.80;;;7.57;;
41480;SDS011;27217;51.220;5.308;2023-03-01T04:00:39;13.90;;;7.57;;
41480;SDS011;27217;51.220;5.308;2023-03-01T04:03:08;16.80;;;7.57;;
41480;SDS011;27217;51.220;5.308;2023-03-01T04:05:35;13.33;;;7.70;;
41480;SDS011;27217;51.220;5.308;2023-03-01T04:08:01;16.13;;;7.80;;
41480;SDS011;27217;51.220;5.308;2023-03-01T04:10:50;14.77;;;7.27;;
41480;SDS011;27217;51.220;5.308;2023-03-01T04:13:16;22.73;;;7.53;;
41480;SDS011;27217;51.220;5.308;2023-03-01T04:15:45;14.23;;;7.87;;
41480;SDS011;27217;51.220;5.308;2023-03-01T04:18:19;19.33;;;9.53;;
41480;SDS011;27217;51.220;5.308;2023-03-01T04:20:47;16.00;;;8.13;;
41480;SDS011;27217;51.220;5.308;2023-03-01T04:23:17;15.27;;;7.97;;
41480;SDS011;27217;51.220;5.308;2023-03-01T04:25:51;13.00;;;7.60;;
41480;SDS011;27217;51.220;5.308;2023-03-01T04:28:20;16.52;;;8.55;;
41480;SDS011;27217;51.220;5.308;2023-03-01T04:30:54;15.53;;;7.23;;
41480;SDS011;27217;51.220;5.308;2023-03-01T04:33:21;14.10;;;7.23;;
41480;SDS011;27217;51.220;5.308;2023-03-01T04:35:49;12.53;;;7.50;;
41480;SDS011;27217;51.220;5.308;2023-03-01T04:38:15;16.77;;;8.30;;
41480;SDS011;27217;51.220;5.308;2023-03-01T04:40:42;15.50;;;8.40;;
41480;SDS011;27217;51.220;5.308;2023-03-01T04:43:08;13.63;;;7.80;;
41480;SDS011;27217;51.220;5.308;2023-03-01T04:45:34;20.93;;;8.30;;
41480;SDS011;27217;51.220;5.308;2023-03-01T04:48:01;16.30;;;7.97;;
41480;SDS011;27217;51.220;5.308;2023-03-01T04:50:29;19.07;;;8.40;;
41480;SDS011;27217;51.220;5.308;2023-03-01T04:52:55;13.67;;;7.60;;
41480;SDS011;27217;51.220;5.308;2023-03-01T04:55:27;14.70;;;8.10;;
41480;SDS011;27217;51.220;5.308;2023-03-01T04:57:54;14.93;;;7.90;;
41480;SDS011;27217;51.220;5.308;2023-03-01T05:00:21;12.67;;;7.70;;
41480;SDS011;27217;51.220;5.308;2023-03-01T05:02:49;15.87;;;7.87;;
41480;SDS011;27217;51.220;5.308;2023-03-01T05:05:21;13.65;;;7.60;;
41480;SDS011;27217;51.220;5.308;2023-03-01T05:07:50;14.37;;;7.33;;
41480;SDS011;27217;51.220;5.308;2023-03-01T05:10:17;16.93;;;8.33;;
41480;SDS011;27217;51.220;5.308;2023-03-01T05:12:42;14.13;;;8.43;;
41480;SDS011;27217;51.220;5.308;2023-03-01T05:15:09;14.60;;;7.90;;
41480;SDS011;27217;51.220;5.308;2023-03-01T05:17:35;14.67;;;8.37;;
41480;SDS011;27217;51.220;5.308;2023-03-01T05:20:01;13.00;;;8.10;;
41480;SDS011;27217;51.220;5.308;2023-03-01T05:22:32;13.50;;;7.67;;
41480;SDS011;27217;51.220;5.308;2023-03-01T05:24:58;14.77;;;7.90;;
41480;SDS011;27217;51.220;5.308;2023-03-01T05:27:24;17.90;;;8.17;;
41480;SDS011;27217;51.220;5.308;2023-03-01T05:29:49;16.40;;;8.63;;
41480;SDS011;27217;51.220;5.308;2023-03-01T05:32:15;18.60;;;9.27;;
41480;SDS011;27217;51.220;5.308;2023-03-01T05:34:41;17.97;;;8.47;;
41480;SDS011;27217;51.220;5.308;2023-03-01T05:37:07;15.47;;;9.37;;
41480;SDS011;27217;51.220;5.308;2023-03-01T05:39:34;20.30;;;9.00;;
41480;SDS011;27217;51.220;5.308;2023-03-01T05:42:00;24.30;;;9.10;;
41480;SDS011;27217;51.220;5.308;2023-03-01T05:44:29;20.00;;;8.67;;
41480;SDS011;27217;51.220;5.308;2023-03-01T05:46:55;18.73;;;9.00;;
41480;SDS011;27217;51.220;5.308;2023-03-01T05:49:22;26.67;;;9.37;;
41480;SDS011;27217;51.220;5.308;2023-03-01T05:51:52;21.67;;;9.50;;
41480;SDS011;27217;51.220;5.308;2023-03-01T05:54:21;18.10;;;9.03;;
41480;SDS011;27217;51.220;5.308;2023-03-01T05:56:47;18.50;;;9.00;;
41480;SDS011;27217;51.220;5.308;2023-03-01T05:59:13;18.13;;;9.17;;
41480;SDS011;27217;51.220;5.308;2023-03-01T06:01:41;21.63;;;9.50;;
41480;SDS011;27217;51.220;5.308;2023-03-01T06:04:07;15.93;;;8.93;;
41480;SDS011;27217;51.220;5.308;2023-03-01T06:06:34;26.40;;;9.43;;
41480;SDS011;27217;51.220;5.308;2023-03-01T06:09:02;20.50;;;9.90;;
41480;SDS011;27217;51.220;5.308;2023-03-01T06:11:29;18.03;;;9.40;;
41480;SDS011;27217;51.220;5.308;2023-03-01T06:13:56;22.43;;;9.97;;
41480;SDS011;27217;51.220;5.308;2023-03-01T06:16:21;19.47;;;10.13;;
41480;SDS011;27217;51.220;5.308;2023-03-01T06:18:47;27.57;;;9.87;;
41480;SDS011;27217;51.220;5.308;2023-03-01T06:21:13;21.13;;;9.30;;
41480;SDS011;27217;51.220;5.308;2023-03-01T06:23:39;23.97;;;11.30;;
41480;SDS011;27217;51.220;5.308;2023-03-01T06:26:06;23.53;;;9.43;;
41480;SDS011;27217;51.220;5.308;2023-03-01T06:28:33;23.20;;;9.27;;
41480;SDS011;27217;51.220;5.308;2023-03-01T06:30:58;20.43;;;9.50;;
41480;SDS011;27217;51.220;5.308;2023-03-01T06:33:25;17.53;;;9.47;;
41480;SDS011;27217;51.220;5.308;2023-03-01T06:35:51;26.37;;;9.87;;
41480;SDS011;27217;51.220;5.308;2023-03-01T06:38:19;20.83;;;10.13;;
41480;SDS011;27217;51.220;5.308;2023-03-01T06:40:50;20.10;;;9.73;;
41480;SDS011;27217;51.220;5.308;2023-03-01T06:43:19;19.20;;;9.90;;
41480;SDS011;27217;51.220;5.308;2023-03-01T06:45:45;18.47;;;9.37;;
41480;SDS011;27217;51.220;5.308;2023-03-01T06:48:11;20.57;;;10.87;;
41480;SDS011;27217;51.220;5.308;2023-03-01T06:50:37;23.67;;;11.67;;
41480;SDS011;27217;51.220;5.308;2023-03-01T06:53:03;25.10;;;10.73;;
41480;SDS011;27217;51.220;5.308;2023-03-01T06:55:29;24.73;;;11.50;;
41480;SDS011;27217;51.220;5.308;2023-03-01T06:57:56;26.10;;;10.90;;
41480;SDS011;27217;51.220;5.308;2023-03-01T07:00:26;16.40;;;8.97;;
41480;SDS011;27217;51.220;5.308;2023-03-01T07:02:52;24.23;;;10.17;;
41480;SDS011;27217;51.220;5.308;2023-03-01T07:05:18;28.50;;;10.47;;
41480;SDS011;27217;51.220;5.308;2023-03-01T07:07:45;26.03;;;11.17;;
41480;SDS011;27217;51.220;5.308;2023-03-01T07:10:13;29.40;;;15.77;;
41480;SDS011;27217;51.220;5.308;2023-03-01T07:12:40;25.70;;;12.53;;
41480;SDS011;27217;51.220;5.308;2023-03-01T07:15:06;22.40;;;10.37;;
41480;SDS011;27217;51.220;5.308;2023-03-01T07:17:34;20.30;;;10.03;;
41480;SDS011;27217;51.220;5.308;2023-03-01T07:20:00;18.97;;;9.20;;
41480;SDS011;27217;51.220;5.308;2023-03-01T07:22:25;16.57;;;9.07;;
41480;SDS011;27217;51.220;5.308;2023-03-01T07:24:52;18.97;;;9.43;;
41480;SDS011;27217;51.220;5.308;2023-03-01T07:27:17;16.37;;;8.90;;
41480;SDS011;27217;51.220;5.308;2023-03-01T07:29:43;17.47;;;9.23;;
41480;SDS011;27217;51.220;5.308;2023-03-01T07:32:09;19.33;;;8.93;;
41480;SDS011;27217;51.220;5.308;2023-03-01T07:34:36;18.03;;;8.93;;
41480;SDS011;27217;51.220;5.308;2023-03-01T07:37:02;21.57;;;9.53;;
41480;SDS011;27217;51.220;5.308;2023-03-01T07:39:28;19.20;;;8.83;;
41480;SDS011;27217;51.220;5.308;2023-03-01T07:41:54;21.57;;;9.10;;
41480;SDS011;27217;51.220;5.308;2023-03-01T07:44:19;18.60;;;9.67;;
41480;SDS011;27217;51.220;5.308;2023-03-01T07:46:45;21.80;;;9.37;;
41480;SDS011;27217;51.220;5.308;2023-03-01T07:49:11;19.63;;;9.67;;
41480;SDS011;27217;51.220;5.308;2023-03-01T07:51:38;19.57;;;9.47;;
41480;SDS011;27217;51.220;5.308;2023-03-01T07:54:04;14.93;;;8.40;;
41480;SDS011;27217;51.220;5.308;2023-03-01T07:56:30;22.33;;;10.37;;
41480;SDS011;27217;51.220;5.308;2023-03-01T07:58:56;21.60;;;9.80;;
41480;SDS011;27217;51.220;5.308;2023-03-01T08:01:27;22.57;;;9.23;;
41480;SDS011;27217;51.220;5.308;2023-03-01T08:03:53;24.03;;;10.50;;
41480;SDS011;27217;51.220;5.308;2023-03-01T08:06:19;17.07;;;9.10;;
41480;SDS011;27217;51.220;5.308;2023-03-01T08:08:45;19.57;;;9.10;;
41480;SDS011;27217;51.220;5.308;2023-03-01T08:11:11;21.87;;;8.80;;
41480;SDS011;27217;51.220;5.308;2023-03-01T08:13:38;18.20;;;8.90;;
41480;SDS011;27217;51.220;5.308;2023-03-01T08:16:05;15.07;;;8.33;;
41480;SDS011;27217;51.220;5.308;2023-03-01T08:18:33;19.60;;;8.67;;
41480;SDS011;27217;51.220;5.308;2023-03-01T08:21:06;21.50;;;8.73;;
41480;SDS011;27217;51.220;5.308;2023-03-01T08:23:34;18.70;;;9.60;;
41480;SDS011;27217;51.220;5.308;2023-03-01T08:26:04;23.70;;;9.43;;
41480;SDS011;27217;51.220;5.308;2023-03-01T08:28:31;19.67;;;9.07;;
41480;SDS011;27217;51.220;5.308;2023-03-01T08:30:57;23.23;;;9.60;;
41480;SDS011;27217;51.220;5.308;2023-03-01T08:33:23;23.80;;;9.47;;
41480;SDS011;27217;51.220;5.308;2023-03-01T08:35:48;16.67;;;9.10;;
41480;SDS011;27217;51.220;5.308;2023-03-01T08:38:14;16.00;;;8.90;;
41480;SDS011;27217;51.220;5.308;2023-03-01T08:40:39;17.80;;;8.53;;
41480;SDS011;27217;51.220;5.308;2023-03-01T08:43:05;17.03;;;8.53;;
41480;SDS011;27217;51.220;5.308;2023-03-01T08:45:31;19.37;;;10.10;;
41480;SDS011;27217;51.220;5.308;2023-03-01T08:47:57;16.03;;;8.83;;
41480;SDS011;27217;51.220;5.308;2023-03-01T08:50:23;16.67;;;9.07;;
41480;SDS011;27217;51.220;5.308;2023-03-01T08:52:49;17.77;;;9.37;;
41480;SDS011;27217;51.220;5.308;2023-03-01T08:55:15;16.93;;;8.07;;
41480;SDS011;27217;51.220;5.308;2023-03-01T08:57:42;17.25;;;9.18;;
41480;SDS011;27217;51.220;5.308;2023-03-01T09:00:09;19.08;;;8.68;;
41480;SDS011;27217;51.220;5.308;2023-03-01T09:02:36;16.98;;;8.43;;
41480;SDS011;27217;51.220;5.308;2023-03-01T09:05:02;22.77;;;9.65;;
41480;SDS011;27217;51.220;5.308;2023-03-01T09:07:28;19.85;;;8.82;;
41480;SDS011;27217;51.220;5.308;2023-03-01T09:09:55;17.23;;;9.30;;
41480;SDS011;27217;51.220;5.308;2023-03-01T09:12:21;22.98;;;9.90;;
41480;SDS011;27217;51.220;5.308;2023-03-01T09:14:47;18.23;;;8.23;;
41480;SDS011;27217;51.220;5.308;2023-03-01T09:17:12;19.25;;;8.90;;
41480;SDS011;27217;51.220;5.308;2023-03-01T09:19:38;20.63;;;8.85;;
41480;SDS011;27217;51.220;5.308;2023-03-01T09:22:04;15.35;;;8.43;;
41480;SDS011;27217;51.220;5.308;2023-03-01T09:24:30;16.15;;;8.15;;
41480;SDS011;27217;51.220;5.308;2023-03-01T09:26:56;14.68;;;7.05;;
41480;SDS011;27217;51.220;5.308;2023-03-01T09:29:22;15.65;;;7.85;;
41480;SDS011;27217;51.220;5.308;2023-03-01T09:31:48;13.88;;;8.05;;
41480;SDS011;27217;51.220;5.308;2023-03-01T09:34:14;19.23;;;9.00;;
41480;SDS011;27217;51.220;5.308;2023-03-01T09:36:44;15.60;;;7.63;;
41480;SDS011;27217;51.220;5.308;2023-03-01T09:39:10;18.42;;;8.88;;
41480;SDS011;27217;51.220;5.308;2023-03-01T09:41:38;23.02;;;8.18;;
41480;SDS011;27217;51.220;5.308;2023-03-01T09:44:27;14.15;;;7.90;;
41480;SDS011;27217;51.220;5.308;2023-03-01T09:46:58;20.23;;;9.18;;
41480;SDS011;27217;51.220;5.308;2023-03-01T09:49:28;21.92;;;8.10;;
41480;SDS011;27217;51.220;5.308;2023-03-01T09:52:04;16.08;;;7.95;;
41480;SDS011;27217;51.220;5.308;2023-03-01T09:54:54;20.13;;;8.82;;
41480;SDS011;27217;51.220;5.308;2023-03-01T09:57:26;14.00;;;7.38;;
41480;SDS011;27217;51.220;5.308;2023-03-01T10:02:48;17.08;;;8.60;;
41480;SDS011;27217;51.220;5.308;2023-03-01T10:08:29;18.20;;;8.95;;
41480;SDS011;27217;51.220;5.308;2023-03-01T10:11:12;16.33;;;8.27;;
41480;SDS011;27217;51.220;5.308;2023-03-01T10:19:03;15.43;;;7.82;;
41480;SDS011;27217;51.220;5.308;2023-03-01T10:21:30;14.45;;;7.82;;
41480;SDS011;27217;51.220;5.308;2023-03-01T10:24:07;14.05;;;7.25;;
41480;SDS011;27217;51.220;5.308;2023-03-01T10:26:46;16.33;;;8.60;;
41480;SDS011;27217;51.220;5.308;2023-03-01T10:29:23;20.20;;;8.63;;
41480;SDS011;27217;51.220;5.308;2023-03-01T10:32:02;15.93;;;9.13;;
41480;SDS011;27217;51.220;5.308;2023-03-01T10:34:32;15.38;;;8.20;;
41480;SDS011;27217;51.220;5.308;2023-03-01T10:37:21;18.30;;;9.25;;
41480;SDS011;27217;51.220;5.308;2023-03-01T10:39:58;19.25;;;9.35;;
41480;SDS011;27217;51.220;5.308;2023-03-01T10:42:31;18.33;;;8.73;;
41480;SDS011;27217;51.220;5.308;2023-03-01T10:44:58;18.10;;;9.05;;
41480;SDS011;27217;51.220;5.308;2023-03-01T10:50:41;15.73;;;8.77;;
41480;SDS011;27217;51.220;5.308;2023-03-01T10:53:21;24.15;;;10.02;;
41480;SDS011;27217;51.220;5.308;2023-03-01T10:58:26;16.20;;;9.20;;
41480;SDS011;27217;51.220;5.308;2023-03-01T11:06:30;21.02;;;10.23;;
41480;SDS011;27217;51.220;5.308;2023-03-01T11:11:44;18.67;;;8.70;;
41480;SDS011;27217;51.220;5.308;2023-03-01T11:14:24;14.20;;;8.32;;
41480;SDS011;27217;51.220;5.308;2023-03-01T11:19:30;21.45;;;9.05;;
41480;SDS011;27217;51.220;5.308;2023-03-01T11:21:59;21.48;;;8.48;;
41480;SDS011;27217;51.220;5.308;2023-03-01T11:24:43;15.02;;;8.38;;
41480;SDS011;27217;51.220;5.308;2023-03-01T11:30:25;17.80;;;9.35;;
41480;SDS011;27217;51.220;5.308;2023-03-01T11:35:40;17.17;;;8.95;;
41480;SDS011;27217;51.220;5.308;2023-03-01T11:38:14;14.55;;;8.43;;
41480;SDS011;27217;51.220;5.308;2023-03-01T11:40:49;13.57;;;7.43;;
41480;SDS011;27217;51.220;5.308;2023-03-01T11:43:28;16.77;;;8.20;;
41480;SDS011;27217;51.220;5.308;2023-03-01T11:49:03;17.17;;;9.10;;
41480;SDS011;27217;51.220;5.308;2023-03-01T11:59:59;12.60;;;7.82;;
41480;SDS011;27217;51.220;5.308;2023-03-01T12:05:42;13.65;;;8.43;;
41480;SDS011;27217;51.220;5.308;2023-03-01T12:08:14;13.80;;;7.72;;
41480;SDS011;27217;51.220;5.308;2023-03-01T12:10:56;11.43;;;7.13;;
41480;SDS011;27217;51.220;5.308;2023-03-01T12:27:14;12.13;;;7.25;;
41480;SDS011;27217;51.220;5.308;2023-03-01T12:38:08;11.00;;;7.35;;
41480;SDS011;27217;51.220;5.308;2023-03-01T12:43:44;11.68;;;7.43;;
41480;SDS011;27217;51.220;5.308;2023-03-01T12:46:25;14.27;;;7.35;;
41480;SDS011;27217;51.220;5.308;2023-03-01T12:49:28;13.00;;;7.05;;
41480;SDS011;27217;51.220;5.308;2023-03-01T12:54:36;9.98;;;6.63;;
41480;SDS011;27217;51.220;5.308;2023-03-01T13:00:15;13.10;;;6.10;;
41480;SDS011;27217;51.220;5.308;2023-03-01T13:05:39;10.82;;;7.43;;
41480;SDS011;27217;51.220;5.308;2023-03-01T13:11:10;12.07;;;6.53;;
41480;SDS011;27217;51.220;5.308;2023-03-01T13:13:37;18.05;;;7.07;;
41480;SDS011;27217;51.220;5.308;2023-03-01T13:16:27;13.93;;;6.65;;
41480;SDS011;27217;51.220;5.308;2023-03-01T13:18:56;18.27;;;6.68;;
41480;SDS011;27217;51.220;5.308;2023-03-01T13:21:33;9.27;;;6.90;;
41480;SDS011;27217;51.220;5.308;2023-03-01T13:23:59;9.27;;;6.30;;
41480;SDS011;27217;51.220;5.308;2023-03-01T13:26:25;9.82;;;6.38;;
41480;SDS011;27217;51.220;5.308;2023-03-01T13:28:52;10.18;;;6.47;;
41480;SDS011;27217;51.220;5.308;2023-03-01T13:33:50;9.90;;;6.65;;
41480;SDS011;27217;51.220;5.308;2023-03-01T13:38:55;18.80;;;7.03;;
41480;SDS011;27217;51.220;5.308;2023-03-01T13:44:18;10.30;;;5.90;;
41480;SDS011;27217;51.220;5.308;2023-03-01T13:46:51;7.50;;;5.93;;
41480;SDS011;27217;51.220;5.308;2023-03-01T13:49:49;9.65;;;5.85;;
41480;SDS011;27217;51.220;5.308;2023-03-01T13:57:21;9.65;;;5.70;;
41480;SDS011;27217;51.220;5.308;2023-03-01T13:59:53;11.48;;;5.65;;
41480;SDS011;27217;51.220;5.308;2023-03-01T14:02:19;11.27;;;5.68;;
41480;SDS011;27217;51.220;5.308;2023-03-01T14:04:55;10.95;;;6.10;;
41480;SDS011;27217;51.220;5.308;2023-03-01T14:07:24;8.77;;;5.05;;
41480;SDS011;27217;51.220;5.308;2023-03-01T14:09:52;8.35;;;5.00;;
41480;SDS011;27217;51.220;5.308;2023-03-01T14:20:26;10.23;;;5.80;;
41480;SDS011;27217;51.220;5.308;2023-03-01T14:22:55;8.05;;;5.68;;
41480;SDS011;27217;51.220;5.308;2023-03-01T14:25:33;8.50;;;5.57;;
41480;SDS011;27217;51.220;5.308;2023-03-01T14:28:14;6.78;;;4.80;;
41480;SDS011;27217;51.220;5.308;2023-03-01T14:31:02;10.32;;;4.68;;
41480;SDS011;27217;51.220;5.308;2023-03-01T14:36:02;10.63;;;6.30;;
41480;SDS011;27217;51.220;5.308;2023-03-01T14:43:57;7.15;;;5.25;;
41480;SDS011;27217;51.220;5.308;2023-03-01T14:46:28;11.02;;;5.53;;
41480;SDS011;27217;51.220;5.308;2023-03-01T14:49:02;7.88;;;5.85;;
41480;SDS011;27217;51.220;5.308;2023-03-01T14:51:32;7.50;;;5.68;;
41480;SDS011;27217;51.220;5.308;2023-03-01T14:54:10;11.05;;;5.57;;
41480;SDS011;27217;51.220;5.308;2023-03-01T14:56:58;9.48;;;5.70;;
41480;SDS011;27217;51.220;5.308;2023-03-01T14:59:25;14.93;;;5.93;;
41480;SDS011;27217;51.220;5.308;2023-03-01T15:01:51;9.32;;;5.28;;
41480;SDS011;27217;51.220;5.308;2023-03-01T15:04:20;10.15;;;4.63;;
41480;SDS011;27217;51.220;5.308;2023-03-01T15:06:47;7.82;;;5.00;;
41480;SDS011;27217;51.220;5.308;2023-03-01T15:09:16;7.80;;;5.07;;
41480;SDS011;27217;51.220;5.308;2023-03-01T15:11:44;8.88;;;5.25;;
41480;SDS011;27217;51.220;5.308;2023-03-01T15:19:54;9.48;;;5.60;;
41480;SDS011;27217;51.220;5.308;2023-03-01T15:22:20;9.60;;;5.38;;
41480;SDS011;27217;51.220;5.308;2023-03-01T15:24:48;7.57;;;4.63;;
41480;SDS011;27217;51.220;5.308;2023-03-01T15:27:18;8.00;;;5.70;;
41480;SDS011;27217;51.220;5.308;2023-03-01T15:29:50;8.27;;;5.20;;
41480;SDS011;27217;51.220;5.308;2023-03-01T15:32:29;7.68;;;4.55;;
41480;SDS011;27217;51.220;5.308;2023-03-01T15:34:59;7.32;;;5.18;;
41480;SDS011;27217;51.220;5.308;2023-03-01T15:37:39;11.90;;;5.30;;
41480;SDS011;27217;51.220;5.308;2023-03-01T15:40:25;7.57;;;4.90;;
41480;SDS011;27217;51.220;5.308;2023-03-01T15:42:59;7.80;;;4.88;;
41480;SDS011;27217;51.220;5.308;2023-03-01T15:45:27;14.18;;;5.95;;
41480;SDS011;27217;51.220;5.308;2023-03-01T15:50:26;10.70;;;5.57;;
41480;SDS011;27217;51.220;5.308;2023-03-01T15:52:53;7.63;;;5.28;;
41480;SDS011;27217;51.220;5.308;2023-03-01T15:55:21;16.02;;;6.13;;
41480;SDS011;27217;51.220;5.308;2023-03-01T15:57:48;12.45;;;5.80;;
41480;SDS011;27217;51.220;5.308;2023-03-01T16:00:22;10.45;;;5.95;;
41480;SDS011;27217;51.220;5.308;2023-03-01T16:02:48;7.97;;;5.68;;
41480;SDS011;27217;51.220;5.308;2023-03-01T16:05:22;8.25;;;6.05;;
41480;SDS011;27217;51.220;5.308;2023-03-01T16:07:59;9.65;;;5.88;;
41480;SDS011;27217;51.220;5.308;2023-03-01T16:10:25;7.60;;;5.45;;
41480;SDS011;27217;51.220;5.308;2023-03-01T16:12:52;8.90;;;5.75;;
41480;SDS011;27217;51.220;5.308;2023-03-01T16:17:52;12.00;;;5.63;;
41480;SDS011;27217;51.220;5.308;2023-03-01T16:20:19;7.78;;;5.93;;
41480;SDS011;27217;51.220;5.308;2023-03-01T16:22:45;11.25;;;6.00;;
41480;SDS011;27217;51.220;5.308;2023-03-01T16:25:15;9.75;;;6.32;;
41480;SDS011;27217;51.220;5.308;2023-03-01T16:27:48;14.45;;;6.45;;
41480;SDS011;27217;51.220;5.308;2023-03-01T16:30:16;12.45;;;6.43;;
41480;SDS011;27217;51.220;5.308;2023-03-01T16:32:45;9.65;;;5.68;;
41480;SDS011;27217;51.220;5.308;2023-03-01T16:35:12;12.43;;;6.43;;
41480;SDS011;27217;51.220;5.308;2023-03-01T16:37:40;11.25;;;6.20;;
41480;SDS011;27217;51.220;5.308;2023-03-01T16:40:09;15.98;;;6.57;;
41480;SDS011;27217;51.220;5.308;2023-03-01T16:42:49;12.95;;;5.85;;
41480;SDS011;27217;51.220;5.308;2023-03-01T16:45:17;13.98;;;6.47;;
41480;SDS011;27217;51.220;5.308;2023-03-01T16:47:44;11.63;;;6.50;;
41480;SDS011;27217;51.220;5.308;2023-03-01T16:50:10;17.45;;;8.35;;
41480;SDS011;27217;51.220;5.308;2023-03-01T16:52:36;9.80;;;6.93;;
41480;SDS011;27217;51.220;5.308;2023-03-01T16:55:03;14.98;;;7.57;;
41480;SDS011;27217;51.220;5.308;2023-03-01T16:57:30;17.13;;;7.25;;
41480;SDS011;27217;51.220;5.308;2023-03-01T16:59:58;12.60;;;7.18;;
41480;SDS011;27217;51.220;5.308;2023-03-01T17:02:25;15.63;;;7.18;;
41480;SDS011;27217;51.220;5.308;2023-03-01T17:04:54;16.48;;;7.75;;
41480;SDS011;27217;51.220;5.308;2023-03-01T17:07:20;14.85;;;7.88;;